sensor_id;sensor_type;location;lat;lon;timestamp;P1;durP1;ratioP1;P2;durP2;ratioP2
77384;SDS011;66443;49.122;8.346;2024-02-04T00:01:28;5.03;;;4.50;;
77384;SDS011;66443;49.122;8.346;2024-02-04T00:03:54;5.43;;;4.93;;
77384;SDS011;66443;49.122;8.346;2024-02-04T00:06:22;6.13;;;5.53;;
77384;SDS011;66443;49.122;8.346;2024-02-04T00:08:47;5.60;;;4.60;;
77384;SDS011;66443;49.122;8.346;2024-02-04T00:11:12;6.17;;;5.33;;
77384;SDS011;66443;49.122;8.346;2024-02-04T00:13:38;5.60;;;5.10;;
77384;SDS011;66443;49.122;8.346;2024-02-04T00:16:03;6.50;;;5.43;;
77384;SDS011;66443;49.122;8.346;2024-02-04T00:18:29;6.50;;;5.83;;
77384;SDS011;66443;49.122;8.346;2024-02-04T00:20:54;6.10;;;5.50;;
77384;SDS011;66443;49.122;8.346;2024-02-04T00:23:19;7.00;;;6.37;;
77384;SDS011;66443;49.122;8.346;2024-02-04T00:25:44;8.23;;;6.57;;
77384;SDS011;66443;49.122;8.346;2024-02-04T00:28:10;8.30;;;7.50;;
77384;SDS011;66443;49.122;8.346;2024-02-04T00:30:38;10.47;;;8.53;;
77384;SDS011;66443;49.122;8.346;2024-02-04T00:33:03;10.37;;;9.27;;
77384;SDS011;66443;49.122;8.346;2024-02-04T00:35:29;9.50;;;8.60;;
77384;SDS011;66443;49.122;8.346;2024-02-04T00:37:54;8.23;;;7.43;;
77384;SDS011;66443;49.122;8.346;2024-02-04T00:40:19;10.10;;;8.67;;
77384;SDS011;66443;49.122;8.346;2024-02-04T00:42:44;8.63;;;7.50;;
77384;SDS011;66443;49.122;8.346;2024-02-04T00:45:10;8.70;;;7.83;;
77384;SDS011;66443;49.122;8.346;2024-02-04T00:47:35;8.00;;;7.20;;
77384;SDS011;66443;49.122;8.346;2024-02-04T00:50:00;8.07;;;7.27;;
77384;SDS011;66443;49.122;8.346;2024-02-04T00:52:25;8.10;;;7.30;;
77384;SDS011;66443;49.122;8.346;2024-02-04T00:54:51;8.17;;;7.30;;
77384;SDS011;66443;49.122;8.346;2024-02-04T00:57:16;8.03;;;7.27;;
77384;SDS011;66443;49.122;8.346;2024-02-04T00:59:41;7.70;;;6.90;;
77384;SDS011;66443;49.122;8.346;2024-02-04T01:02:06;7.07;;;6.37;;
77384;SDS011;66443;49.122;8.346;2024-02-04T01:04:31;6.53;;;5.93;;
77384;SDS011;66443;49.122;8.346;2024-02-04T01:06:56;7.00;;;6.30;;
77384;SDS011;66443;49.122;8.346;2024-02-04T01:09:22;6.57;;;5.97;;
77384;SDS011;66443;49.122;8.346;2024-02-04T01:11:47;7.33;;;6.63;;
77384;SDS011;66443;49.122;8.346;2024-02-04T01:14:12;6.63;;;6.03;;
77384;SDS011;66443;49.122;8.346;2024-02-04T01:16:37;5.53;;;5.03;;
77384;SDS011;66443;49.122;8.346;2024-02-04T01:19:03;7.30;;;6.07;;
77384;SDS011;66443;49.122;8.346;2024-02-04T01:21:28;6.63;;;6.03;;
77384;SDS011;66443;49.122;8.346;2024-02-04T01:23:54;6.50;;;5.90;;
77384;SDS011;66443;49.122;8.346;2024-02-04T01:26:19;6.60;;;5.87;;
77384;SDS011;66443;49.122;8.346;2024-02-04T01:28:45;6.80;;;6.20;;
77384;SDS011;66443;49.122;8.346;2024-02-04T01:31:10;6.03;;;5.40;;
77384;SDS011;66443;49.122;8.346;2024-02-04T01:33:35;7.97;;;5.63;;
77384;SDS011;66443;49.122;8.346;2024-02-04T01:36:01;7.13;;;6.50;;
77384;SDS011;66443;49.122;8.346;2024-02-04T01:38:26;6.80;;;6.10;;
77384;SDS011;66443;49.122;8.346;2024-02-04T01:40:51;7.60;;;5.60;;
77384;SDS011;66443;49.122;8.346;2024-02-04T01:43:17;5.80;;;5.23;;
77384;SDS011;66443;49.122;8.346;2024-02-04T01:45:43;7.60;;;6.90;;
77384;SDS011;66443;49.122;8.346;2024-02-04T01:48:08;6.43;;;5.83;;
77384;SDS011;66443;49.122;8.346;2024-02-04T01:50:33;5.60;;;5.00;;
77384;SDS011;66443;49.122;8.346;2024-02-04T01:52:59;5.83;;;5.33;;
77384;SDS011;66443;49.122;8.346;2024-02-04T01:55:24;6.00;;;5.40;;
77384;SDS011;66443;49.122;8.346;2024-02-04T01:57:49;5.53;;;4.93;;
77384;SDS011;66443;49.122;8.346;2024-02-04T02:00:17;5.77;;;5.27;;
77384;SDS011;66443;49.122;8.346;2024-02-04T02:02:43;5.50;;;5.00;;
77384;SDS011;66443;49.122;8.346;2024-02-04T02:05:10;5.00;;;4.60;;
77384;SDS011;66443;49.122;8.346;2024-02-04T02:07:36;5.33;;;4.83;;
77384;SDS011;66443;49.122;8.346;2024-02-04T02:10:01;5.23;;;4.80;;
77384;SDS011;66443;49.122;8.346;2024-02-04T02:12:27;4.80;;;4.40;;
77384;SDS011;66443;49.122;8.346;2024-02-04T02:14:56;4.80;;;4.40;;
77384;SDS011;66443;49.122;8.346;2024-02-04T02:20:06;5.00;;;4.57;;
77384;SDS011;66443;49.122;8.346;2024-02-04T02:25:38;4.93;;;4.17;;
77384;SDS011;66443;49.122;8.346;2024-02-04T02:28:03;5.80;;;5.20;;
77384;SDS011;66443;49.122;8.346;2024-02-04T02:30:28;5.90;;;5.30;;
77384;SDS011;66443;49.122;8.346;2024-02-04T02:32:54;5.07;;;4.57;;
77384;SDS011;66443;49.122;8.346;2024-02-04T02:35:19;4.50;;;4.10;;
77384;SDS011;66443;49.122;8.346;2024-02-04T02:37:46;4.83;;;4.33;;
77384;SDS011;66443;49.122;8.346;2024-02-04T02:40:23;5.63;;;5.13;;
77384;SDS011;66443;49.122;8.346;2024-02-04T02:42:49;5.50;;;5.00;;
77384;SDS011;66443;49.122;8.346;2024-02-04T02:45:16;5.33;;;4.60;;
77384;SDS011;66443;49.122;8.346;2024-02-04T02:47:43;4.47;;;4.13;;
77384;SDS011;66443;49.122;8.346;2024-02-04T02:50:09;5.17;;;4.70;;
77384;SDS011;66443;49.122;8.346;2024-02-04T02:52:34;5.10;;;4.60;;
77384;SDS011;66443;49.122;8.346;2024-02-04T02:55:00;5.50;;;4.30;;
77384;SDS011;66443;49.122;8.346;2024-02-04T02:57:25;4.80;;;4.40;;
77384;SDS011;66443;49.122;8.346;2024-02-04T02:59:50;5.47;;;4.20;;
77384;SDS011;66443;49.122;8.346;2024-02-04T03:02:15;3.67;;;3.37;;
77384;SDS011;66443;49.122;8.346;2024-02-04T03:04:41;3.73;;;3.43;;
77384;SDS011;66443;49.122;8.346;2024-02-04T03:07:06;4.90;;;3.40;;
77384;SDS011;66443;49.122;8.346;2024-02-04T03:09:32;4.20;;;3.63;;
77384;SDS011;66443;49.122;8.346;2024-02-04T03:11:57;4.37;;;3.37;;
77384;SDS011;66443;49.122;8.346;2024-02-04T03:14:22;3.33;;;3.03;;
77384;SDS011;66443;49.122;8.346;2024-02-04T03:16:48;3.73;;;3.33;;
77384;SDS011;66443;49.122;8.346;2024-02-04T03:19:13;2.97;;;2.77;;
77384;SDS011;66443;49.122;8.346;2024-02-04T03:21:38;2.70;;;2.50;;
77384;SDS011;66443;49.122;8.346;2024-02-04T03:24:03;3.17;;;2.87;;
77384;SDS011;66443;49.122;8.346;2024-02-04T03:26:28;2.90;;;2.70;;
77384;SDS011;66443;49.122;8.346;2024-02-04T03:28:54;2.70;;;2.50;;
77384;SDS011;66443;49.122;8.346;2024-02-04T03:31:19;3.23;;;2.90;;
77384;SDS011;66443;49.122;8.346;2024-02-04T03:33:45;3.40;;;2.90;;
77384;SDS011;66443;49.122;8.346;2024-02-04T03:36:10;2.77;;;2.57;;
77384;SDS011;66443;49.122;8.346;2024-02-04T03:38:36;2.60;;;2.40;;
77384;SDS011;66443;49.122;8.346;2024-02-04T03:41:01;2.73;;;2.53;;
77384;SDS011;66443;49.122;8.346;2024-02-04T03:43:27;2.93;;;2.60;;
77384;SDS011;66443;49.122;8.346;2024-02-04T03:45:52;2.47;;;2.27;;
77384;SDS011;66443;49.122;8.346;2024-02-04T03:48:17;2.90;;;2.40;;
77384;SDS011;66443;49.122;8.346;2024-02-04T03:50:42;2.50;;;2.30;;
77384;SDS011;66443;49.122;8.346;2024-02-04T03:53:07;2.73;;;2.53;;
77384;SDS011;66443;49.122;8.346;2024-02-04T03:55:33;2.80;;;2.60;;
77384;SDS011;66443;49.122;8.346;2024-02-04T03:57:58;3.03;;;2.50;;
77384;SDS011;66443;49.122;8.346;2024-02-04T04:00:23;2.67;;;2.47;;
77384;SDS011;66443;49.122;8.346;2024-02-04T04:02:48;3.30;;;3.00;;
77384;SDS011;66443;49.122;8.346;2024-02-04T04:05:13;3.57;;;3.17;;
77384;SDS011;66443;49.122;8.346;2024-02-04T04:07:39;3.30;;;2.80;;
77384;SDS011;66443;49.122;8.346;2024-02-04T04:10:05;4.23;;;2.57;;
77384;SDS011;66443;49.122;8.346;2024-02-04T04:12:30;3.20;;;2.90;;
77384;SDS011;66443;49.122;8.346;2024-02-04T04:14:55;3.13;;;2.63;;
77384;SDS011;66443;49.122;8.346;2024-02-04T04:17:20;2.90;;;2.60;;
77384;SDS011;66443;49.122;8.346;2024-02-04T04:19:45;3.50;;;3.20;;
77384;SDS011;66443;49.122;8.346;2024-02-04T04:22:11;5.83;;;3.30;;
77384;SDS011;66443;49.122;8.346;2024-02-04T04:24:37;3.33;;;3.03;;
77384;SDS011;66443;49.122;8.346;2024-02-04T04:27:02;3.03;;;2.83;;
77384;SDS011;66443;49.122;8.346;2024-02-04T04:29:28;4.53;;;3.47;;
77384;SDS011;66443;49.122;8.346;2024-02-04T04:31:53;3.13;;;2.77;;
77384;SDS011;66443;49.122;8.346;2024-02-04T04:34:18;3.83;;;3.43;;
77384;SDS011;66443;49.122;8.346;2024-02-04T04:36:44;4.10;;;3.70;;
77384;SDS011;66443;49.122;8.346;2024-02-04T04:39:10;3.93;;;3.40;;
77384;SDS011;66443;49.122;8.346;2024-02-04T04:41:35;3.57;;;3.07;;
77384;SDS011;66443;49.122;8.346;2024-02-04T04:44:00;3.40;;;3.10;;
77384;SDS011;66443;49.122;8.346;2024-02-04T04:46:26;3.63;;;3.20;;
77384;SDS011;66443;49.122;8.346;2024-02-04T04:48:51;3.37;;;3.07;;
77384;SDS011;66443;49.122;8.346;2024-02-04T04:51:17;3.23;;;2.77;;
77384;SDS011;66443;49.122;8.346;2024-02-04T04:53:42;2.87;;;2.67;;
77384;SDS011;66443;49.122;8.346;2024-02-04T04:56:07;3.27;;;2.97;;
77384;SDS011;66443;49.122;8.346;2024-02-04T04:58:33;3.30;;;2.97;;
77384;SDS011;66443;49.122;8.346;2024-02-04T05:00:59;3.33;;;3.03;;
77384;SDS011;66443;49.122;8.346;2024-02-04T05:03:25;3.40;;;3.10;;
77384;SDS011;66443;49.122;8.346;2024-02-04T05:05:50;3.67;;;3.40;;
77384;SDS011;66443;49.122;8.346;2024-02-04T05:08:15;4.90;;;3.77;;
77384;SDS011;66443;49.122;8.346;2024-02-04T05:10:40;3.00;;;2.70;;
77384;SDS011;66443;49.122;8.346;2024-02-04T05:13:07;3.43;;;3.13;;
77384;SDS011;66443;49.122;8.346;2024-02-04T05:15:32;3.20;;;2.90;;
77384;SDS011;66443;49.122;8.346;2024-02-04T05:17:59;3.13;;;2.83;;
77384;SDS011;66443;49.122;8.346;2024-02-04T05:20:24;4.27;;;2.73;;
77384;SDS011;66443;49.122;8.346;2024-02-04T05:22:49;3.60;;;3.30;;
77384;SDS011;66443;49.122;8.346;2024-02-04T05:25:15;3.67;;;3.37;;
77384;SDS011;66443;49.122;8.346;2024-02-04T05:27:40;3.47;;;2.67;;
77384;SDS011;66443;49.122;8.346;2024-02-04T05:30:05;2.37;;;2.17;;
77384;SDS011;66443;49.122;8.346;2024-02-04T05:32:31;2.60;;;2.40;;
77384;SDS011;66443;49.122;8.346;2024-02-04T05:34:56;2.30;;;2.10;;
77384;SDS011;66443;49.122;8.346;2024-02-04T05:37:21;2.90;;;2.50;;
77384;SDS011;66443;49.122;8.346;2024-02-04T05:39:47;6.63;;;2.70;;
77384;SDS011;66443;49.122;8.346;2024-02-04T05:42:12;2.07;;;1.97;;
77384;SDS011;66443;49.122;8.346;2024-02-04T05:44:37;2.80;;;2.50;;
77384;SDS011;66443;49.122;8.346;2024-02-04T05:47:02;4.10;;;2.83;;
77384;SDS011;66443;49.122;8.346;2024-02-04T05:49:27;2.77;;;2.40;;
77384;SDS011;66443;49.122;8.346;2024-02-04T05:51:53;2.83;;;2.63;;
77384;SDS011;66443;49.122;8.346;2024-02-04T05:54:18;3.10;;;2.70;;
77384;SDS011;66443;49.122;8.346;2024-02-04T05:56:43;3.63;;;2.93;;
77384;SDS011;66443;49.122;8.346;2024-02-04T05:59:09;3.20;;;2.83;;
77384;SDS011;66443;49.122;8.346;2024-02-04T06:01:34;3.67;;;3.13;;
77384;SDS011;66443;49.122;8.346;2024-02-04T06:03:59;3.30;;;3.00;;
77384;SDS011;66443;49.122;8.346;2024-02-04T06:06:24;3.00;;;2.80;;
77384;SDS011;66443;49.122;8.346;2024-02-04T06:08:49;3.10;;;2.80;;
77384;SDS011;66443;49.122;8.346;2024-02-04T06:11:15;2.87;;;2.67;;
77384;SDS011;66443;49.122;8.346;2024-02-04T06:13:40;2.40;;;2.13;;
77384;SDS011;66443;49.122;8.346;2024-02-04T06:16:06;3.07;;;2.77;;
77384;SDS011;66443;49.122;8.346;2024-02-04T06:18:31;2.83;;;2.50;;
77384;SDS011;66443;49.122;8.346;2024-02-04T06:20:56;3.23;;;2.93;;
77384;SDS011;66443;49.122;8.346;2024-02-04T06:23:21;3.43;;;2.77;;
77384;SDS011;66443;49.122;8.346;2024-02-04T06:25:46;3.83;;;2.93;;
77384;SDS011;66443;49.122;8.346;2024-02-04T06:28:12;3.43;;;3.10;;
77384;SDS011;66443;49.122;8.346;2024-02-04T06:30:38;4.53;;;2.70;;
77384;SDS011;66443;49.122;8.346;2024-02-04T06:33:03;3.60;;;3.30;;
77384;SDS011;66443;49.122;8.346;2024-02-04T06:35:28;2.83;;;2.63;;
77384;SDS011;66443;49.122;8.346;2024-02-04T06:37:53;3.33;;;3.03;;
77384;SDS011;66443;49.122;8.346;2024-02-04T06:40:18;3.50;;;3.20;;
77384;SDS011;66443;49.122;8.346;2024-02-04T06:42:44;3.37;;;3.07;;
77384;SDS011;66443;49.122;8.346;2024-02-04T06:45:09;3.83;;;3.53;;
77384;SDS011;66443;49.122;8.346;2024-02-04T06:47:34;3.30;;;3.00;;
77384;SDS011;66443;49.122;8.346;2024-02-04T06:49:59;5.03;;;3.67;;
77384;SDS011;66443;49.122;8.346;2024-02-04T06:52:28;4.77;;;4.20;;
77384;SDS011;66443;49.122;8.346;2024-02-04T06:54:53;3.70;;;3.40;;
77384;SDS011;66443;49.122;8.346;2024-02-04T06:57:18;3.27;;;2.97;;
77384;SDS011;66443;49.122;8.346;2024-02-04T06:59:43;3.23;;;3.00;;
77384;SDS011;66443;49.122;8.346;2024-02-04T07:02:08;4.73;;;3.17;;
77384;SDS011;66443;49.122;8.346;2024-02-04T07:04:33;2.97;;;2.77;;
77384;SDS011;66443;49.122;8.346;2024-02-04T07:06:59;3.67;;;2.90;;
77384;SDS011;66443;49.122;8.346;2024-02-04T07:09:24;3.50;;;3.20;;
77384;SDS011;66443;49.122;8.346;2024-02-04T07:11:49;3.07;;;2.83;;
77384;SDS011;66443;49.122;8.346;2024-02-04T07:14:14;3.40;;;3.10;;
77384;SDS011;66443;49.122;8.346;2024-02-04T07:16:39;2.33;;;2.13;;
77384;SDS011;66443;49.122;8.346;2024-02-04T07:19:05;2.60;;;2.40;;
77384;SDS011;66443;49.122;8.346;2024-02-04T07:21:30;2.53;;;2.30;;
77384;SDS011;66443;49.122;8.346;2024-02-04T07:23:55;2.40;;;2.20;;
77384;SDS011;66443;49.122;8.346;2024-02-04T07:26:20;3.07;;;2.57;;
77384;SDS011;66443;49.122;8.346;2024-02-04T07:28:45;2.73;;;2.53;;
77384;SDS011;66443;49.122;8.346;2024-02-04T07:31:10;2.87;;;2.53;;
77384;SDS011;66443;49.122;8.346;2024-02-04T07:33:36;3.17;;;2.43;;
77384;SDS011;66443;49.122;8.346;2024-02-04T07:36:01;3.97;;;2.60;;
77384;SDS011;66443;49.122;8.346;2024-02-04T07:38:26;2.50;;;2.30;;
77384;SDS011;66443;49.122;8.346;2024-02-04T07:40:51;3.00;;;2.60;;
77384;SDS011;66443;49.122;8.346;2024-02-04T07:43:17;2.97;;;2.77;;
77384;SDS011;66443;49.122;8.346;2024-02-04T07:45:43;2.57;;;2.37;;
77384;SDS011;66443;49.122;8.346;2024-02-04T07:48:08;2.53;;;2.33;;
77384;SDS011;66443;49.122;8.346;2024-02-04T07:50:34;1.90;;;1.80;;
77384;SDS011;66443;49.122;8.346;2024-02-04T07:52:59;2.30;;;2.10;;
77384;SDS011;66443;49.122;8.346;2024-02-04T07:55:24;2.47;;;2.10;;
77384;SDS011;66443;49.122;8.346;2024-02-04T07:57:50;2.77;;;2.53;;
77384;SDS011;66443;49.122;8.346;2024-02-04T08:00:15;4.33;;;2.67;;
77384;SDS011;66443;49.122;8.346;2024-02-04T08:02:40;2.23;;;2.07;;
77384;SDS011;66443;49.122;8.346;2024-02-04T08:05:05;2.33;;;1.87;;
77384;SDS011;66443;49.122;8.346;2024-02-04T08:07:31;2.30;;;2.20;;
77384;SDS011;66443;49.122;8.346;2024-02-04T08:09:56;2.37;;;2.17;;
77384;SDS011;66443;49.122;8.346;2024-02-04T08:12:22;2.57;;;2.37;;
77384;SDS011;66443;49.122;8.346;2024-02-04T08:14:47;2.40;;;2.20;;
77384;SDS011;66443;49.122;8.346;2024-02-04T08:17:13;2.07;;;1.97;;
77384;SDS011;66443;49.122;8.346;2024-02-04T08:19:38;2.03;;;1.83;;
77384;SDS011;66443;49.122;8.346;2024-02-04T08:22:03;1.97;;;1.77;;
77384;SDS011;66443;49.122;8.346;2024-02-04T08:24:29;2.40;;;2.20;;
77384;SDS011;66443;49.122;8.346;2024-02-04T08:26:56;2.13;;;1.83;;
77384;SDS011;66443;49.122;8.346;2024-02-04T08:29:22;1.90;;;1.80;;
77384;SDS011;66443;49.122;8.346;2024-02-04T08:31:47;1.90;;;1.80;;
77384;SDS011;66443;49.122;8.346;2024-02-04T08:34:12;2.83;;;1.93;;
77384;SDS011;66443;49.122;8.346;2024-02-04T08:36:37;1.60;;;1.50;;
77384;SDS011;66443;49.122;8.346;2024-02-04T08:39:02;2.47;;;1.60;;
77384;SDS011;66443;49.122;8.346;2024-02-04T08:41:27;1.60;;;1.50;;
77384;SDS011;66443;49.122;8.346;2024-02-04T08:43:53;2.17;;;1.70;;
77384;SDS011;66443;49.122;8.346;2024-02-04T08:46:18;2.50;;;1.70;;
77384;SDS011;66443;49.122;8.346;2024-02-04T08:48:43;1.83;;;1.70;;
77384;SDS011;66443;49.122;8.346;2024-02-04T08:51:12;1.43;;;1.40;;
77384;SDS011;66443;49.122;8.346;2024-02-04T08:53:38;1.57;;;1.47;;
77384;SDS011;66443;49.122;8.346;2024-02-04T08:56:04;1.57;;;1.47;;
77384;SDS011;66443;49.122;8.346;2024-02-04T08:58:30;1.67;;;1.57;;
77384;SDS011;66443;49.122;8.346;2024-02-04T09:00:55;1.60;;;1.50;;
77384;SDS011;66443;49.122;8.346;2024-02-04T09:03:21;2.50;;;1.80;;
77384;SDS011;66443;49.122;8.346;2024-02-04T09:05:46;1.60;;;1.50;;
77384;SDS011;66443;49.122;8.346;2024-02-04T09:08:11;1.70;;;1.60;;
77384;SDS011;66443;49.122;8.346;2024-02-04T09:10:36;1.20;;;1.10;;
77384;SDS011;66443;49.122;8.346;2024-02-04T09:13:02;1.40;;;1.30;;
77384;SDS011;66443;49.122;8.346;2024-02-04T09:15:27;1.67;;;1.57;;
77384;SDS011;66443;49.122;8.346;2024-02-04T09:17:52;1.60;;;1.50;;
77384;SDS011;66443;49.122;8.346;2024-02-04T09:20:17;1.43;;;1.33;;
77384;SDS011;66443;49.122;8.346;2024-02-04T09:22:43;1.50;;;1.40;;
77384;SDS011;66443;49.122;8.346;2024-02-04T09:25:08;2.10;;;1.50;;
77384;SDS011;66443;49.122;8.346;2024-02-04T09:27:33;2.47;;;1.10;;
77384;SDS011;66443;49.122;8.346;2024-02-04T09:29:59;1.80;;;1.30;;
77384;SDS011;66443;49.122;8.346;2024-02-04T09:32:24;1.50;;;1.40;;
77384;SDS011;66443;49.122;8.346;2024-02-04T09:34:50;1.23;;;1.20;;
77384;SDS011;66443;49.122;8.346;2024-02-04T09:37:15;1.40;;;1.30;;
77384;SDS011;66443;49.122;8.346;2024-02-04T09:39:41;1.50;;;1.40;;
77384;SDS011;66443;49.122;8.346;2024-02-04T09:42:06;1.60;;;1.50;;
77384;SDS011;66443;49.122;8.346;2024-02-04T09:44:31;1.80;;;1.70;;
77384;SDS011;66443;49.122;8.346;2024-02-04T09:46:57;1.60;;;1.50;;
77384;SDS011;66443;49.122;8.346;2024-02-04T09:49:24;1.60;;;1.50;;
77384;SDS011;66443;49.122;8.346;2024-02-04T09:51:50;1.40;;;1.30;;
77384;SDS011;66443;49.122;8.346;2024-02-04T09:54:15;2.10;;;1.20;;
77384;SDS011;66443;49.122;8.346;2024-02-04T09:56:41;1.40;;;1.30;;
77384;SDS011;66443;49.122;8.346;2024-02-04T09:59:06;3.27;;;1.40;;
77384;SDS011;66443;49.122;8.346;2024-02-04T10:01:32;0.97;;;0.97;;
77384;SDS011;66443;49.122;8.346;2024-02-04T10:03:57;1.40;;;1.30;;
77384;SDS011;66443;49.122;8.346;2024-02-04T10:06:22;1.50;;;1.40;;
77384;SDS011;66443;49.122;8.346;2024-02-04T10:08:48;2.17;;;1.00;;
77384;SDS011;66443;49.122;8.346;2024-02-04T10:11:13;0.80;;;0.80;;
77384;SDS011;66443;49.122;8.346;2024-02-04T10:13:44;2.70;;;1.07;;
77384;SDS011;66443;49.122;8.346;2024-02-04T10:16:10;0.80;;;0.80;;
77384;SDS011;66443;49.122;8.346;2024-02-04T10:18:35;1.10;;;0.90;;
77384;SDS011;66443;49.122;8.346;2024-02-04T10:21:00;0.90;;;0.90;;
77384;SDS011;66443;49.122;8.346;2024-02-04T10:23:25;1.57;;;0.70;;
77384;SDS011;66443;49.122;8.346;2024-02-04T10:25:58;0.90;;;0.90;;
77384;SDS011;66443;49.122;8.346;2024-02-04T10:28:23;0.80;;;0.80;;
77384;SDS011;66443;49.122;8.346;2024-02-04T10:30:48;0.70;;;0.70;;
77384;SDS011;66443;49.122;8.346;2024-02-04T10:33:14;0.93;;;0.87;;
77384;SDS011;66443;49.122;8.346;2024-02-04T10:35:42;0.87;;;0.87;;
77384;SDS011;66443;49.122;8.346;2024-02-04T10:38:07;0.60;;;0.60;;
77384;SDS011;66443;49.122;8.346;2024-02-04T10:40:32;0.70;;;0.70;;
77384;SDS011;66443;49.122;8.346;2024-02-04T10:43:00;2.13;;;1.80;;
77384;SDS011;66443;49.122;8.346;2024-02-04T10:45:28;2.30;;;0.67;;
77384;SDS011;66443;49.122;8.346;2024-02-04T10:47:55;0.80;;;0.80;;
77384;SDS011;66443;49.122;8.346;2024-02-04T10:50:22;0.70;;;0.70;;
77384;SDS011;66443;49.122;8.346;2024-02-04T10:52:49;1.60;;;0.77;;
77384;SDS011;66443;49.122;8.346;2024-02-04T10:55:15;0.80;;;0.80;;
77384;SDS011;66443;49.122;8.346;2024-02-04T10:57:42;0.80;;;0.80;;
77384;SDS011;66443;49.122;8.346;2024-02-04T11:00:07;1.40;;;1.30;;
77384;SDS011;66443;49.122;8.346;2024-02-04T11:02:36;0.70;;;0.70;;
77384;SDS011;66443;49.122;8.346;2024-02-04T11:05:03;0.80;;;0.80;;
77384;SDS011;66443;49.122;8.346;2024-02-04T11:07:30;0.80;;;0.80;;
77384;SDS011;66443;49.122;8.346;2024-02-04T11:09:56;0.80;;;0.80;;
77384;SDS011;66443;49.122;8.346;2024-02-04T11:12:22;0.97;;;0.70;;
77384;SDS011;66443;49.122;8.346;2024-02-04T11:14:48;0.67;;;0.67;;
77384;SDS011;66443;49.122;8.346;2024-02-04T11:23:10;0.60;;;0.60;;
77384;SDS011;66443;49.122;8.346;2024-02-04T11:25:47;0.83;;;0.83;;
77384;SDS011;66443;49.122;8.346;2024-02-04T11:28:13;1.17;;;0.70;;
77384;SDS011;66443;49.122;8.346;2024-02-04T11:30:38;0.80;;;0.80;;
77384;SDS011;66443;49.122;8.346;2024-02-04T11:33:03;0.73;;;0.73;;
77384;SDS011;66443;49.122;8.346;2024-02-04T11:35:30;0.70;;;0.70;;
77384;SDS011;66443;49.122;8.346;2024-02-04T11:37:56;0.80;;;0.80;;
77384;SDS011;66443;49.122;8.346;2024-02-04T11:40:21;1.17;;;1.07;;
77384;SDS011;66443;49.122;8.346;2024-02-04T11:42:48;0.90;;;0.90;;
77384;SDS011;66443;49.122;8.346;2024-02-04T11:45:14;1.33;;;1.30;;
77384;SDS011;66443;49.122;8.346;2024-02-04T11:47:39;1.20;;;1.10;;
77384;SDS011;66443;49.122;8.346;2024-02-04T11:50:05;0.67;;;0.60;;
77384;SDS011;66443;49.122;8.346;2024-02-04T11:52:30;0.50;;;0.50;;
77384;SDS011;66443;49.122;8.346;2024-02-04T11:54:56;0.73;;;0.73;;
77384;SDS011;66443;49.122;8.346;2024-02-04T11:57:21;0.57;;;0.57;;
77384;SDS011;66443;49.122;8.346;2024-02-04T11:59:47;0.90;;;0.90;;
77384;SDS011;66443;49.122;8.346;2024-02-04T12:02:14;0.87;;;0.87;;
77384;SDS011;66443;49.122;8.346;2024-02-04T12:04:40;0.70;;;0.70;;
77384;SDS011;66443;49.122;8.346;2024-02-04T12:07:06;1.07;;;0.77;;
77384;SDS011;66443;49.122;8.346;2024-02-04T12:09:31;0.90;;;0.90;;
77384;SDS011;66443;49.122;8.346;2024-02-04T12:11:57;0.70;;;0.70;;
77384;SDS011;66443;49.122;8.346;2024-02-04T12:14:22;0.70;;;0.70;;
77384;SDS011;66443;49.122;8.346;2024-02-04T12:16:47;0.67;;;0.67;;
77384;SDS011;66443;49.122;8.346;2024-02-04T12:19:13;0.80;;;0.80;;
77384;SDS011;66443;49.122;8.346;2024-02-04T12:21:38;0.60;;;0.60;;
77384;SDS011;66443;49.122;8.346;2024-02-04T12:24:03;0.60;;;0.60;;
77384;SDS011;66443;49.122;8.346;2024-02-04T12:26:29;1.00;;;0.90;;
77384;SDS011;66443;49.122;8.346;2024-02-04T12:28:54;0.70;;;0.70;;
77384;SDS011;66443;49.122;8.346;2024-02-04T12:31:20;1.00;;;1.00;;
77384;SDS011;66443;49.122;8.346;2024-02-04T12:33:52;0.83;;;0.83;;
77384;SDS011;66443;49.122;8.346;2024-02-04T12:36:19;0.60;;;0.60;;
77384;SDS011;66443;49.122;8.346;2024-02-04T12:38:49;0.90;;;0.90;;
77384;SDS011;66443;49.122;8.346;2024-02-04T12:41:15;1.33;;;0.80;;
77384;SDS011;66443;49.122;8.346;2024-02-04T12:43:40;2.10;;;0.90;;
77384;SDS011;66443;49.122;8.346;2024-02-04T12:46:05;0.80;;;0.80;;
77384;SDS011;66443;49.122;8.346;2024-02-04T12:48:32;0.50;;;0.50;;
77384;SDS011;66443;49.122;8.346;2024-02-04T12:50:57;0.80;;;0.80;;
77384;SDS011;66443;49.122;8.346;2024-02-04T12:53:23;0.70;;;0.70;;
77384;SDS011;66443;49.122;8.346;2024-02-04T12:55:48;0.60;;;0.60;;
77384;SDS011;66443;49.122;8.346;2024-02-04T12:58:13;1.00;;;1.00;;
77384;SDS011;66443;49.122;8.346;2024-02-04T13:00:42;0.80;;;0.77;;
77384;SDS011;66443;49.122;8.346;2024-02-04T13:03:08;1.37;;;1.00;;
77384;SDS011;66443;49.122;8.346;2024-02-04T13:05:34;1.10;;;1.10;;
77384;SDS011;66443;49.122;8.346;2024-02-04T13:07:59;1.10;;;1.00;;
77384;SDS011;66443;49.122;8.346;2024-02-04T13:10:29;0.67;;;0.67;;
77384;SDS011;66443;49.122;8.346;2024-02-04T13:15:27;1.73;;;1.00;;
77384;SDS011;66443;49.122;8.346;2024-02-04T13:17:53;0.60;;;0.60;;
77384;SDS011;66443;49.122;8.346;2024-02-04T13:20:18;1.37;;;0.70;;
77384;SDS011;66443;49.122;8.346;2024-02-04T13:22:43;0.80;;;0.70;;
77384;SDS011;66443;49.122;8.346;2024-02-04T13:25:09;1.37;;;0.80;;
77384;SDS011;66443;49.122;8.346;2024-02-04T13:27:34;0.80;;;0.80;;
77384;SDS011;66443;49.122;8.346;2024-02-04T13:30:00;1.20;;;0.90;;
77384;SDS011;66443;49.122;8.346;2024-02-04T13:32:25;0.80;;;0.80;;
77384;SDS011;66443;49.122;8.346;2024-02-04T13:34:50;0.77;;;0.77;;
77384;SDS011;66443;49.122;8.346;2024-02-04T13:37:16;0.90;;;0.87;;
77384;SDS011;66443;49.122;8.346;2024-02-04T13:39:41;0.87;;;0.87;;
77384;SDS011;66443;49.122;8.346;2024-02-04T13:42:06;1.00;;;0.50;;
77384;SDS011;66443;49.122;8.346;2024-02-04T13:44:32;0.83;;;0.77;;
77384;SDS011;66443;49.122;8.346;2024-02-04T13:46:57;1.00;;;1.00;;
77384;SDS011;66443;49.122;8.346;2024-02-04T13:49:22;1.00;;;1.00;;
77384;SDS011;66443;49.122;8.346;2024-02-04T13:51:47;0.70;;;0.70;;
77384;SDS011;66443;49.122;8.346;2024-02-04T13:54:12;0.80;;;0.80;;
77384;SDS011;66443;49.122;8.346;2024-02-04T13:56:40;3.17;;;1.40;;
77384;SDS011;66443;49.122;8.346;2024-02-04T13:59:06;1.40;;;0.60;;
77384;SDS011;66443;49.122;8.346;2024-02-04T14:01:32;1.00;;;0.90;;
77384;SDS011;66443;49.122;8.346;2024-02-04T14:03:57;2.17;;;2.07;;
77384;SDS011;66443;49.122;8.346;2024-02-04T14:06:22;1.73;;;1.37;;
77384;SDS011;66443;49.122;8.346;2024-02-04T14:08:48;1.10;;;0.93;;
77384;SDS011;66443;49.122;8.346;2024-02-04T14:11:13;1.57;;;0.90;;
77384;SDS011;66443;49.122;8.346;2024-02-04T14:13:38;1.23;;;1.10;;
77384;SDS011;66443;49.122;8.346;2024-02-04T14:16:04;1.00;;;1.00;;
77384;SDS011;66443;49.122;8.346;2024-02-04T14:18:30;1.23;;;1.13;;
77384;SDS011;66443;49.122;8.346;2024-02-04T14:20:55;0.70;;;0.70;;
77384;SDS011;66443;49.122;8.346;2024-02-04T14:23:20;1.07;;;1.00;;
77384;SDS011;66443;49.122;8.346;2024-02-04T14:25:45;1.83;;;1.50;;
77384;SDS011;66443;49.122;8.346;2024-02-04T14:28:11;1.73;;;1.60;;
77384;SDS011;66443;49.122;8.346;2024-02-04T14:30:36;1.37;;;1.27;;
77384;SDS011;66443;49.122;8.346;2024-02-04T14:33:01;2.00;;;1.80;;
77384;SDS011;66443;49.122;8.346;2024-02-04T14:35:28;1.27;;;1.17;;
77384;SDS011;66443;49.122;8.346;2024-02-04T14:37:53;1.40;;;1.30;;
77384;SDS011;66443;49.122;8.346;2024-02-04T14:40:18;2.67;;;1.45;;
77384;SDS011;66443;49.122;8.346;2024-02-04T14:42:43;1.00;;;1.00;;
77384;SDS011;66443;49.122;8.346;2024-02-04T14:45:09;4.47;;;1.37;;
77384;SDS011;66443;49.122;8.346;2024-02-04T14:47:35;1.50;;;1.40;;
77384;SDS011;66443;49.122;8.346;2024-02-04T14:50:00;1.40;;;1.30;;
77384;SDS011;66443;49.122;8.346;2024-02-04T14:52:26;1.13;;;1.13;;